TimeAEST,TemperatureF,Dew PointF,Humidity,Sea Level PressureIn,VisibilityMPH,Wind Direction,Wind SpeedMPH,Gust SpeedMPH,PrecipitationIn,Events,Conditions,WindDirDegrees,DateUTC
12:00 AM,77,67,64,29.92,,South,10.4,,,,,170,2012-12-11 14:00:00
12:00 AM,77.0,66.2,69,29.92,6.2,South,10.4,-,N/A,,Partly Cloudy,170,2012-12-11 14:00:00
12:30 AM,77.0,68.0,74,29.89,6.2,SSE,8.1,-,N/A,Rain,Light Rain Showers,160,2012-12-11 14:30:00
1:00 AM,76,68,70,29.90,,SSE,9.2,,,,,160,2012-12-11 15:00:00
1:00 AM,75.2,68.0,78,29.89,6.2,SSE,9.2,-,N/A,,Partly Cloudy,160,2012-12-11 15:00:00
1:30 AM,77.0,68.0,74,29.86,6.2,SSE,10.4,-,N/A,,Partly Cloudy,160,2012-12-11 15:30:00
2:00 AM,77.0,68.0,74,29.86,6.2,South,10.4,-,N/A,,Scattered Clouds,170,2012-12-11 16:00:00
2:30 AM,77.0,68.0,74,29.86,6.2,South,10.4,-,N/A,,Mostly Cloudy,170,2012-12-11 16:30:00
3:00 AM,74,69,80,29.87,,South,13.8,,,,Overcast,170,2012-12-11 17:00:00
3:00 AM,73.4,69.8,88,29.86,6.2,South,13.8,-,N/A,,Scattered Clouds,170,2012-12-11 17:00:00
3:30 AM,75.2,68.0,78,29.86,6.2,South,10.4,-,N/A,,Scattered Clouds,180,2012-12-11 17:30:00
4:00 AM,76,68,69,29.88,,South,11.5,,,,,180,2012-12-11 18:00:00
4:00 AM,75.2,68.0,78,29.86,6.2,South,11.5,-,N/A,,Scattered Clouds,180,2012-12-11 18:00:00
4:30 AM,75.2,68.0,78,29.86,6.2,South,12.7,-,N/A,,Scattered Clouds,190,2012-12-11 18:30:00
5:00 AM,75.2,68.0,78,29.86,6.2,South,10.4,-,N/A,,Scattered Clouds,180,2012-12-11 19:00:00
5:30 AM,75.2,68.0,78,29.89,6.2,South,9.2,-,N/A,,Mostly Cloudy,180,2012-12-11 19:30:00
6:00 AM,76,67,68,29.90,16,South,10.4,,,,Partly Cloudy,170,2012-12-11 20:00:00
6:00 AM,75.2,68.0,78,29.89,6.2,South,10.4,-,N/A,,Mostly Cloudy,170,2012-12-11 20:00:00
6:30 AM,77.0,68.0,74,29.92,6.2,South,10.4,-,N/A,,Mostly Cloudy,180,2012-12-11 20:30:00
7:00 AM,77,68,67,29.94,,South,9.2,,,,,180,2012-12-11 21:00:00
7:00 AM,77.0,68.0,74,29.92,6.2,South,9.2,-,N/A,,Mostly Cloudy,180,2012-12-11 21:00:00
7:30 AM,78.8,68.0,69,29.92,6.2,South,11.5,-,N/A,,Mostly Cloudy,170,2012-12-11 21:30:00
8:00 AM,78.8,69.8,74,29.92,6.2,SSE,10.4,-,N/A,,Mostly Cloudy,160,2012-12-11 22:00:00
8:30 AM,78.8,69.8,74,29.95,6.2,South,9.2,-,N/A,,Mostly Cloudy,180,2012-12-11 22:30:00
9:00 AM,80,71,67,29.95,16,South,8.1,,,Rain,Light Rain Showers,170,2012-12-11 23:00:00
9:00 AM,78.8,71.6,78,29.95,6.2,South,8.1,-,N/A,,Scattered Clouds,170,2012-12-11 23:00:00
9:30 AM,84.2,69.8,62,29.95,6.2,SSE,15.0,-,N/A,,Mostly Cloudy,150,2012-12-11 23:30:00
10:00 AM,86,67,43,29.94,,SE,19.6,,,,,130,2012-12-12 00:00:00
10:00 AM,86.0,66.2,51,29.92,6.2,SE,19.6,-,N/A,,Mostly Cloudy,130,2012-12-12 00:00:00
10:30 AM,87.8,66.2,49,29.92,6.2,SE,18.4,-,N/A,,Mostly Cloudy,130,2012-12-12 00:30:00
11:00 AM,80.6,71.6,74,29.92,6.2,SSE,17.3,-,N/A,,Scattered Clouds,150,2012-12-12 01:00:00
11:44 AM,82.4,69.8,66,29.92,6.2,ESE,18.4,33.4,N/A,Rain,Light Rain Showers,120,2012-12-12 01:44:00
12:00 PM,86,68,46,29.91,,ESE,19.6,,,,,120,2012-12-12 02:00:00
12:00 PM,86.0,68.0,55,29.92,4.3,ESE,19.6,-,N/A,,Mostly Cloudy,120,2012-12-12 02:00:00
12:30 PM,82.4,69.8,66,29.89,6.2,SE,18.4,-,N/A,,Scattered Clouds,130,2012-12-12 02:30:00
1:00 PM,89,66,37,29.89,,SE,16.1,,,,,130,2012-12-12 03:00:00
1:00 PM,87.8,66.2,49,29.89,6.2,SE,16.1,-,N/A,,Scattered Clouds,130,2012-12-12 03:00:00
1:30 PM,87.8,66.2,49,29.86,6.2,ESE,20.7,-,N/A,,Partly Cloudy,120,2012-12-12 03:30:00
2:00 PM,87.8,64.4,46,29.86,6.2,ESE,23.0,-,N/A,,Partly Cloudy,120,2012-12-12 04:00:00
2:30 PM,89.6,60.8,38,29.83,6.2,SE,23.0,-,N/A,,Partly Cloudy,130,2012-12-12 04:30:00
3:00 PM,88,65,36,29.85,,SE,23.0,,,,,130,2012-12-12 05:00:00
3:00 PM,87.8,64.4,46,29.83,6.2,SE,23.0,-,N/A,,Partly Cloudy,130,2012-12-12 05:00:00
3:30 PM,86.0,66.2,51,29.83,6.2,SE,21.9,-,N/A,,Partly Cloudy,130,2012-12-12 05:30:00
4:00 PM,85,65,42,29.86,,SE,20.7,,,,,140,2012-12-12 06:00:00
4:00 PM,84.2,66.2,55,29.83,6.2,SE,20.7,-,N/A,,Partly Cloudy,140,2012-12-12 06:00:00
4:30 PM,84.2,64.4,51,29.83,6.2,SE,19.6,-,N/A,,Partly Cloudy,130,2012-12-12 06:30:00
5:00 PM,84.2,64.4,51,29.83,6.2,SSE,21.9,-,N/A,,Partly Cloudy,150,2012-12-12 07:00:00
5:30 PM,84.2,64.4,51,29.86,6.2,SE,18.4,-,N/A,,Partly Cloudy,130,2012-12-12 07:30:00
6:00 PM,82,66,49,29.86,,SE,15.0,,,,,140,2012-12-12 08:00:00
6:00 PM,82.4,66.2,58,29.86,6.2,SE,15.0,-,N/A,,Partly Cloudy,140,2012-12-12 08:00:00
6:30 PM,80.6,66.2,61,29.86,6.2,SE,15.0,-,N/A,,Partly Cloudy,140,2012-12-12 08:30:00
7:00 PM,80,67,56,29.88,,SE,16.1,,,,,130,2012-12-12 09:00:00
7:00 PM,80.6,68.0,65,29.86,6.2,SE,16.1,-,N/A,,Partly Cloudy,130,2012-12-12 09:00:00
7:30 PM,78.8,68.0,69,29.89,6.2,SE,12.7,-,N/A,,Partly Cloudy,140,2012-12-12 09:30:00
8:00 PM,78.8,68.0,69,29.89,6.2,SSE,11.5,-,N/A,,Partly Cloudy,150,2012-12-12 10:00:00
8:30 PM,78.8,68.0,69,29.89,6.2,South,8.1,-,N/A,,Partly Cloudy,170,2012-12-12 10:30:00
9:00 PM,78,67,62,29.90,,SSE,8.1,,,,,160,2012-12-12 11:00:00
9:00 PM,77.0,68.0,74,29.89,6.2,SSE,8.1,-,N/A,,Partly Cloudy,160,2012-12-12 11:00:00
9:30 PM,77.0,68.0,74,29.92,6.2,South,8.1,-,N/A,,Partly Cloudy,170,2012-12-12 11:30:00
10:00 PM,77,68,68,29.93,,South,8.1,,,,,170,2012-12-12 12:00:00
10:00 PM,77.0,68.0,74,29.92,6.2,South,8.1,-,N/A,,Partly Cloudy,170,2012-12-12 12:00:00
10:30 PM,78.8,68.0,69,29.92,6.2,South,9.2,-,N/A,,Scattered Clouds,180,2012-12-12 12:30:00
11:00 PM,77.0,68.0,74,29.92,6.2,South,9.2,-,N/A,,Scattered Clouds,180,2012-12-12 13:00:00
11:30 PM,77.0,68.0,74,29.92,6.2,South,9.2,-,N/A,,Partly Cloudy,180,2012-12-12 13:30:00